METAR Data
IDs: Format: Raw Decoded Include TAF

Data at: 0552 UTC 24 Sep 2018

KDBN 240535Z AUTO 00000KT 10SM CLR 22/21 A3010 RMK AO2
KDBN 240515Z AUTO 13004KT 10SM CLR 22/21 A3010 RMK AO2
KDBN 240455Z AUTO 13005KT 10SM CLR 23/21 A3010 RMK AO2
KDBN 240435Z AUTO 14006KT 10SM CLR 23/21 A3010 RMK AO2
KDBN 240415Z AUTO 13005KT 10SM CLR 23/21 A3010 RMK AO2
KDBN 240355Z AUTO 14004KT 10SM CLR 23/20 A3010 RMK AO2
KDBN 240335Z AUTO 14004KT 10SM CLR 24/21 A3009 RMK AO2
KDBN 240315Z AUTO 14006KT 10SM CLR 25/20 A3009 RMK AO2
KDBN 240255Z AUTO 14006KT 10SM CLR 25/20 A3009 RMK AO2
KDBN 240235Z AUTO 12006KT 10SM BKN095 25/20 A3009 RMK AO2
KDBN 240215Z AUTO 13005KT 10SM OVC085 26/21 A3009 RMK AO2
KDBN 240155Z AUTO 14005KT 10SM OVC085 26/21 A3008 RMK AO2
KDBN 240135Z AUTO 13006KT 10SM OVC085 26/21 A3007 RMK AO2
KDBN 240115Z AUTO 14007KT 10SM OVC085 26/21 A3006 RMK AO2
KDBN 240055Z AUTO 13006KT 10SM SCT065 SCT075 OVC085 26/22 A3005 RMK AO2
KDBN 240035Z AUTO 15008KT 10SM BKN065 OVC095 27/22 A3005 RMK AO2
KDBN 240015Z AUTO 16006KT 10SM -DZ SCT065 BKN070 OVC095 27/21 A3004 RMK AO2
KDBN 232355Z AUTO 13008KT 10SM BKN055 OVC065 28/21 A3004 RMK AO2
KDBN 232335Z AUTO 19003KT 10SM OVC065 28/18 A3003 RMK AO2
KDBN 232315Z AUTO 14004KT 10SM OVC065 30/18 A3002 RMK AO2
KDBN 232255Z AUTO 13003KT 10SM SCT065 BKN090 30/18 A3002 RMK AO2
KDBN 232235Z AUTO 13005KT 10SM SCT060 SCT070 BKN090 31/18 A3002 RMK AO2
KDBN 232215Z AUTO 16006KT 10SM BKN060 OVC070 32/18 A3001 RMK AO2
KDBN 232155Z AUTO 14006KT 10SM BKN060 OVC075 31/17 A3001 RMK AO2
KDBN 232135Z AUTO 00000KT 10SM OVC075 32/16 A3001 RMK AO2
KDBN 232115Z AUTO 14004KT 10SM SCT070 BKN085 32/16 A3001 RMK AO2
KDBN 232055Z AUTO 10004KT 10SM SCT080 32/16 A3001 RMK AO2
KDBN 232035Z AUTO 14004KT 10SM SCT070 32/16 A3001 RMK AO2
KDBN 232015Z AUTO 10004KT 10SM OVC070 32/16 A3001 RMK AO2
KDBN 231955Z AUTO 08004KT 10SM OVC070 33/15 A3002 RMK AO2
KDBN 231935Z AUTO 00000KT 10SM SCT070 32/15 A3003 RMK AO2
KDBN 231915Z AUTO 05003KT 10SM SCT055 32/16 A3003 RMK AO2
KDBN 231855Z AUTO 10003KT 10SM SCT055 32/16 A3004 RMK AO2
KDBN 231835Z AUTO 09004KT 10SM CLR 32/16 A3005 RMK AO2
KDBN 231815Z AUTO 16006KT 10SM CLR 32/16 A3007 RMK AO2
KDBN 231755Z AUTO 00000KT 10SM SCT050 31/16 A3008 RMK AO2
KDBN 231735Z AUTO 09005KT 10SM SCT050 32/17 A3009 RMK AO2
KDBN 231715Z AUTO 00000KT 10SM CLR 31/17 A3009 RMK AO2
KDBN 231655Z AUTO 14003KT 10SM CLR 30/18 A3009 RMK AO2
KDBN 231635Z AUTO 11005KT 10SM CLR 31/18 A3010 RMK AO2
KDBN 231615Z AUTO 14005KT 10SM SCT041 30/17 A3010 RMK AO2
KDBN 231555Z AUTO 15005KT 10SM SCT041 30/18 A3011 RMK AO2
KDBN 231535Z AUTO 10006KT 10SM CLR 28/18 A3011 RMK AO2
KDBN 231515Z AUTO 11003KT 10SM SCT029 SCT036 28/19 A3011 RMK AO2
KDBN 231455Z AUTO 19004KT 10SM SCT025 BKN035 28/20 A3012 RMK AO2
KDBN 231435Z AUTO 12003KT 10SM SCT022 27/20 A3012 RMK AO2
KDBN 231415Z AUTO 14004KT 10SM CLR 26/21 A3011 RMK AO2
KDBN 231355Z AUTO 09003KT 10SM CLR 26/21 A3011 RMK AO2
KDBN 231335Z AUTO 00000KT 10SM CLR 25/21 A3011 RMK AO2
KDBN 231315Z AUTO 00000KT 10SM CLR 23/21 A3011 RMK AO2
KDBN 231255Z AUTO 00000KT 10SM CLR 21/20 A3009 RMK AO2
KDBN 231235Z AUTO 00000KT 10SM CLR 20/20 A3009 RMK AO2
KDBN 231215Z AUTO 00000KT 7SM CLR 20/19 A3009 RMK AO2
KDBN 231155Z AUTO 00000KT 7SM CLR 18/18 A3009 RMK AO2
KDBN 231135Z AUTO 00000KT 7SM CLR 17/16 A3008 RMK AO2
KDBN 231115Z AUTO 00000KT 7SM SCT019 17/16 A3008 RMK AO2
KDBN 231055Z AUTO 00000KT 7SM SCT017 17/17 A3007 RMK AO2
KDBN 231035Z AUTO 00000KT 7SM CLR 17/17 A3007 RMK AO2
KDBN 231015Z AUTO 00000KT 5SM BR CLR 17/16 A3006 RMK AO2
KDBN 230955Z AUTO 00000KT 7SM CLR 17/17 A3006 RMK AO2
KDBN 230935Z AUTO 00000KT 10SM CLR 17/17 A3006 RMK AO2
KDBN 230915Z AUTO 00000KT 4SM BR CLR 17/17 A3006 RMK AO2
KDBN 230850Z AUTO 00000KT 7SM CLR 17/17 A3006 RMK AO2
KDBN 230835Z AUTO 00000KT 10SM CLR 18/17 A3006 RMK AO2
KDBN 230815Z AUTO 00000KT 10SM CLR 17/17 A3006 RMK AO2
KDBN 230755Z AUTO 00000KT 10SM CLR 18/17 A3006 RMK AO2
KDBN 230735Z AUTO 00000KT 10SM CLR 17/17 A3006 RMK AO2
KDBN 230715Z AUTO 00000KT 10SM CLR 17/17 A3006 RMK AO2
KDBN 230655Z AUTO 00000KT 10SM CLR 17/17 A3007 RMK AO2
KDBN 230635Z AUTO 00000KT 10SM CLR 18/17 A3007 RMK AO2
KDBN 230615Z AUTO 00000KT 10SM CLR 18/18 A3007 RMK AO2
KDBN 230555Z AUTO 00000KT 10SM CLR 18/18 A3008 RMK AO2
KDBN 230535Z AUTO 00000KT 10SM CLR 18/17 A3008 RMK AO2
KDBN 230515Z AUTO 00000KT 10SM CLR 18/17 A3009 RMK AO2
KDBN 230455Z AUTO 00000KT 10SM CLR 20/18 A3009 RMK AO2
KDBN 230435Z AUTO 00000KT 10SM CLR 20/18 A3009 RMK AO2
KDBN 230415Z AUTO 00000KT 10SM CLR 20/18 A3009 RMK AO2
KDBN 230355Z AUTO 00000KT 10SM CLR 20/18 A3010 RMK AO2
KDBN 230335Z AUTO 00000KT 10SM CLR 21/19 A3010 RMK AO2
KDBN 230315Z AUTO 00000KT 10SM CLR 22/19 A3010 RMK AO2
KDBN 230255Z AUTO 00000KT 10SM CLR 22/19 A3010 RMK AO2
KDBN 230235Z AUTO 17004KT 10SM CLR 23/19 A3010 RMK AO2
KDBN 230215Z AUTO 17004KT 10SM CLR 23/19 A3010 RMK AO2
KDBN 230155Z AUTO 16005KT 10SM CLR 23/18 A3009 RMK AO2
KDBN 230135Z AUTO 16004KT 10SM CLR 24/18 A3008 RMK AO2
KDBN 230115Z AUTO 16003KT 10SM CLR 23/17 A3007 RMK AO2
KDBN 230055Z AUTO 15004KT 10SM CLR 24/17 A3006 RMK AO2
KDBN 230035Z AUTO 14004KT 10SM CLR 25/16 A3005 RMK AO2
KDBN 230015Z AUTO 00000KT 10SM CLR 23/16 A3004 RMK AO2
KDBN 222355Z AUTO 00000KT 10SM CLR 25/15 A3004 RMK AO2
KDBN 222335Z AUTO 13003KT 10SM CLR 26/16 A3004 RMK AO2
KDBN 222315Z AUTO 13004KT 10SM CLR 28/15 A3003 RMK AO2
KDBN 222255Z AUTO 12005KT 10SM CLR 30/15 A3003 RMK AO2
KDBN 222235Z AUTO 13007KT 10SM CLR 30/15 A3003 RMK AO2
KDBN 222215Z AUTO 12005KT 10SM CLR 31/15 A3003 RMK AO2
KDBN 222155Z AUTO 12005KT 10SM CLR 31/16 A3003 RMK AO2
KDBN 222135Z AUTO 12006KT 10SM CLR 32/15 A3003 RMK AO2
KDBN 222115Z AUTO 12007KT 10SM CLR 31/15 A3004 RMK AO2
KDBN 222055Z AUTO 11011KT 10SM SCT065 33/15 A3004 RMK AO2
KDBN 222035Z AUTO 09006KT 10SM SCT065 BKN075 32/15 A3004 RMK AO2
KDBN 222015Z AUTO 07004KT 10SM BKN065 BKN075 33/15 A3004 RMK AO2
KDBN 221955Z AUTO 13009KT 10SM CLR 33/15 A3005 RMK AO2
KDBN 221930Z AUTO 08008KT 10SM SCT075 SCT085 32/16 A3006 RMK AO2
KDBN 221915Z AUTO 12006KT 10SM CLR 32/16 A3006 RMK AO2
KDBN 221855Z AUTO 09007KT 10SM SCT060 32/15 A3007 RMK AO2
KDBN 221835Z AUTO 13006KT 10SM SCT060 33/16 A3008 RMK AO2
KDBN 221815Z AUTO 09005KT 10SM SCT060 32/16 A3009 RMK AO2
KDBN 221755Z AUTO 12007KT 10SM SCT060 31/17 A3010 RMK AO2